Terminal Aerodrome Forecast
Issued by NWS

Home | Current Version | Previous Version | Text Only | Print | Product List | Glossary On
Versions: 1 2 3 4 5 6 7 8 9 10 11 12
000
FTUS46 KSGX 161100
TAFONT
TAF
KONT 161120Z 1612/1718 VRB04KT P6SM SKC
     FM162000 26012KT P6SM SCT090 SCT150
     FM170400 VRB05KT P6SM SCT100 SCT150=

USA.gov is the U.S. government's official web portal to all federal, state and local government web resources and services.